createdAt,value
2019-04-16T00:02:21.332Z,8.97
2019-04-16T00:05:06.732Z,8.96
2019-04-16T00:07:46.127Z,8.91
2019-04-16T00:10:19.275Z,8.90
2019-04-16T00:12:55.414Z,8.91
2019-04-16T00:15:27.014Z,8.89
2019-04-16T00:17:58.575Z,8.91
2019-04-16T00:20:31.088Z,8.87
2019-04-16T00:23:04.644Z,8.88
2019-04-16T00:25:36.314Z,8.90
2019-04-16T00:28:07.970Z,8.86
2019-04-16T00:30:39.549Z,8.82
2019-04-16T00:33:11.586Z,8.81
2019-04-16T00:35:46.455Z,8.79
2019-04-16T00:38:16.718Z,8.76
2019-04-16T00:40:48.327Z,8.73
2019-04-16T00:43:19.930Z,8.71
2019-04-16T00:45:51.564Z,8.67
2019-04-16T00:48:23.188Z,8.67
2019-04-16T00:50:56.460Z,8.65
2019-04-16T00:53:28.163Z,8.67
2019-04-16T00:55:59.795Z,8.66
2019-04-16T00:58:31.359Z,8.60
2019-04-16T01:01:02.961Z,8.59
2019-04-16T01:03:34.677Z,8.58
2019-04-16T01:06:07.936Z,8.56
2019-04-16T01:08:53.590Z,8.57
2019-04-16T01:11:14.038Z,8.56
2019-04-16T01:13:46.114Z,8.54
2019-04-16T01:16:17.725Z,8.52
2019-04-16T01:18:49.403Z,8.50
2019-04-16T01:21:21.008Z,8.49
2019-04-16T01:23:52.619Z,8.47
2019-04-16T01:26:26.758Z,8.46
2019-04-16T01:29:07.855Z,8.49
2019-04-16T01:31:43.363Z,8.42
2019-04-16T01:34:35.615Z,8.42
2019-04-16T01:37:08.746Z,8.40
2019-04-16T01:39:42.027Z,8.40
2019-04-16T01:42:15.054Z,8.37
2019-04-16T01:44:46.669Z,8.39
2019-04-16T01:47:18.289Z,8.38
2019-04-16T01:49:49.914Z,8.33
2019-04-16T01:52:21.486Z,8.36
2019-04-16T01:54:54.865Z,8.37
2019-04-16T01:57:28.400Z,8.39
2019-04-16T01:59:59.522Z,8.37
2019-04-16T02:02:31.178Z,8.33
2019-04-16T02:05:02.796Z,8.32
2019-04-16T02:07:34.431Z,8.31
2019-04-16T02:10:08.069Z,8.29
2019-04-16T02:12:43.436Z,8.28
2019-04-16T02:15:13.238Z,8.25
2019-04-16T02:17:44.872Z,8.23
2019-04-16T02:20:16.438Z,8.23
2019-04-16T02:22:48.066Z,8.18
2019-04-16T02:25:21.125Z,8.16
2019-04-16T02:27:54.232Z,8.13
2019-04-16T02:30:26.058Z,8.07
2019-04-16T02:32:57.675Z,8.04
2019-04-16T02:35:33.830Z,8.03
2019-04-16T02:38:11.092Z,7.99
2019-04-16T02:40:38.854Z,7.96
2019-04-16T02:43:10.408Z,7.96
2019-04-16T02:45:42.033Z,7.93
2019-04-16T02:48:16.651Z,7.88
2019-04-16T02:50:48.597Z,7.88
2019-04-16T02:53:36.929Z,7.84
2019-04-16T02:56:28.447Z,7.81
2019-04-16T02:59:10.026Z,7.77
2019-04-16T03:01:55.468Z,7.76
2019-04-16T03:04:31.777Z,7.76
2019-04-16T03:07:04.520Z,7.77
2019-04-16T03:09:40.211Z,7.71
2019-04-16T03:12:10.690Z,7.70
2019-04-16T03:14:42.913Z,7.71
2019-04-16T03:17:32.192Z,7.69
2019-04-16T03:20:06.787Z,7.68
2019-04-16T03:22:38.458Z,7.63
2019-04-16T03:25:13.839Z,7.65
2019-04-16T03:27:44.564Z,7.64
2019-04-16T03:30:16.364Z,7.62
2019-04-16T03:32:49.532Z,7.63
2019-04-16T03:35:25.231Z,7.68
2019-04-16T03:37:54.525Z,7.69
2019-04-16T03:40:26.148Z,7.69
2019-04-16T03:42:59.473Z,7.67
2019-04-16T03:45:31.009Z,7.68
2019-04-16T03:48:04.163Z,7.66
2019-04-16T03:50:35.782Z,7.66
2019-04-16T03:53:07.481Z,7.66
2019-04-16T03:55:39.051Z,7.64
2019-04-16T03:58:10.661Z,7.63
2019-04-16T04:00:44.197Z,7.63
2019-04-16T04:03:15.862Z,7.67
2019-04-16T04:05:49.012Z,7.68
2019-04-16T04:08:20.633Z,7.65
2019-04-16T04:10:52.167Z,7.66
2019-04-16T04:13:23.774Z,7.66
2019-04-16T04:15:58.633Z,7.66
2019-04-16T04:18:29.295Z,7.65
2019-04-16T04:21:00.865Z,7.66
2019-04-16T04:23:32.465Z,7.65
2019-04-16T04:26:05.521Z,7.69
2019-04-16T04:28:38.379Z,7.69
2019-04-16T04:31:10.962Z,7.69
2019-04-16T04:33:43.903Z,7.68
2019-04-16T04:36:18.749Z,7.70
2019-04-16T04:38:48.771Z,7.71
2019-04-16T04:41:23.032Z,7.71
2019-04-16T04:43:53.660Z,7.73
2019-04-16T04:46:25.795Z,7.68
2019-04-16T04:49:00.224Z,7.64
2019-04-16T04:51:30.756Z,7.66
2019-04-16T04:54:02.336Z,7.66
2019-04-16T04:56:33.963Z,7.69
2019-04-16T04:59:06.077Z,7.64
2019-04-16T05:01:42.077Z,7.64
2019-04-16T05:04:21.175Z,7.67
2019-04-16T05:07:04.558Z,7.69
2019-04-16T05:09:36.406Z,7.70
2019-04-16T05:12:09.735Z,7.70
2019-04-16T05:14:57.222Z,7.71
2019-04-16T05:17:29.539Z,7.72
2019-04-16T05:20:02.152Z,7.74
2019-04-16T05:22:33.760Z,7.76
2019-04-16T05:25:08.289Z,7.75
2019-04-16T05:27:41.048Z,7.74
2019-04-16T05:30:13.752Z,7.76
2019-04-16T05:32:45.467Z,7.78
2019-04-16T05:35:20.203Z,7.83
2019-04-16T05:37:52.300Z,7.85
2019-04-16T05:40:24.020Z,7.87
2019-04-16T05:42:55.861Z,7.85
2019-04-16T05:45:34.520Z,7.87
2019-04-16T05:48:09.056Z,7.89
2019-04-16T05:50:43.714Z,7.89
2019-04-16T05:53:19.248Z,7.93
2019-04-16T05:56:07.347Z,7.94
2019-04-16T05:58:38.957Z,7.93
2019-04-16T06:01:13.703Z,8.00
2019-04-16T06:03:45.532Z,8.03
2019-04-16T06:06:17.120Z,8.07
2019-04-16T06:08:48.795Z,8.11
2019-04-16T06:11:29.237Z,8.19
2019-04-16T06:14:03.721Z,8.20
2019-04-16T06:16:56.934Z,8.21
2019-04-16T06:19:31.819Z,8.22
2019-04-16T06:22:09.733Z,8.24
2019-04-16T06:24:42.934Z,8.25
2019-04-16T06:27:35.366Z,8.32
2019-04-16T06:30:17.615Z,8.42
2019-04-16T06:32:50.812Z,8.63
2019-04-16T06:35:43.518Z,8.65
2019-04-16T06:38:22.567Z,8.68
2019-04-16T06:41:03.074Z,8.70
2019-04-16T06:43:37.723Z,8.74
2019-04-16T06:46:27.607Z,8.80
2019-04-16T06:49:06.774Z,8.91
2019-04-16T06:51:56.001Z,8.94
2019-04-16T06:54:45.703Z,9.01
2019-04-16T06:57:35.535Z,9.01
2019-04-16T07:00:17.688Z,9.03
2019-04-16T07:03:02.110Z,9.14
2019-04-16T07:05:37.891Z,9.25
2019-04-16T07:08:17.898Z,9.29
2019-04-16T07:11:03.923Z,9.41
2019-04-16T07:13:35.423Z,9.37
2019-04-16T07:16:07.051Z,9.41
2019-04-16T07:18:39.308Z,9.40
2019-04-16T07:34:52.408Z,9.63
2019-04-16T07:37:41.808Z,9.71
2019-04-16T07:40:14.932Z,9.84
2019-04-16T07:43:06.661Z,9.83
2019-04-16T07:45:49.922Z,9.78
2019-04-16T07:48:33.035Z,9.66
2019-04-16T07:51:16.501Z,9.63
2019-04-16T07:53:49.680Z,9.52
2019-04-16T07:56:33.224Z,9.74
2019-04-16T07:59:04.913Z,9.82
2019-04-16T08:01:37.766Z,9.86
2019-04-16T08:04:09.419Z,9.79
2019-04-16T08:06:46.319Z,9.88
2019-04-16T08:09:14.756Z,9.95
2019-04-16T08:11:46.515Z,9.89
2019-04-16T08:14:19.652Z,10.00
2019-04-16T08:16:53.087Z,9.93
2019-04-16T08:19:35.994Z,9.81
2019-04-16T08:21:58.293Z,9.99
2019-04-16T08:24:37.270Z,10.15
2019-04-16T08:27:17.813Z,10.41
2019-04-16T08:29:45.469Z,10.62
2019-04-16T08:32:18.575Z,10.65
2019-04-16T08:34:50.232Z,10.65
2019-04-16T08:37:21.795Z,10.62
2019-04-16T08:39:54.798Z,10.61
2019-04-16T08:42:29.318Z,10.59
2019-04-16T08:44:59.642Z,10.43
2019-04-16T08:47:33.675Z,10.41
2019-04-16T08:50:07.590Z,10.21
2019-04-16T08:52:41.695Z,10.11
2019-04-16T08:55:13.663Z,9.92
2019-04-16T08:57:46.958Z,9.85
2019-04-16T09:00:18.583Z,9.77
2019-04-16T09:02:50.155Z,9.67
2019-04-16T09:05:21.767Z,9.63
2019-04-16T09:07:53.354Z,9.57
2019-04-16T09:10:29.973Z,9.55
2019-04-16T09:13:04.095Z,9.56
2019-04-16T09:15:35.461Z,9.56
2019-04-16T09:18:24.910Z,9.53
2019-04-16T09:20:57.110Z,9.60
2019-04-16T09:23:31.248Z,9.64
2019-04-16T09:26:13.534Z,9.68
2019-04-16T09:28:39.250Z,9.80
2019-04-16T09:31:18.827Z,9.97
2019-04-16T09:33:57.349Z,10.28
2019-04-16T09:36:39.341Z,10.59
2019-04-16T09:39:27.768Z,10.96
2019-04-16T09:42:02.062Z,11.19
2019-04-16T09:44:37.937Z,11.46
2019-04-16T09:47:09.486Z,11.64
2019-04-16T09:49:42.598Z,11.75
2019-04-16T09:52:19.691Z,11.75
2019-04-16T09:54:54.969Z,11.68
2019-04-16T09:57:30.901Z,11.42
2019-04-16T10:00:02.545Z,11.16
2019-04-16T10:02:34.651Z,10.93
2019-04-16T10:05:06.888Z,10.82
2019-04-16T10:07:42.424Z,10.58
2019-04-16T10:10:13.970Z,10.50
2019-04-16T10:12:47.772Z,10.47
2019-04-16T10:15:19.280Z,10.47
2019-04-16T10:17:52.233Z,10.45
2019-04-16T10:20:23.755Z,10.40
2019-04-16T10:22:55.181Z,10.41
2019-04-16T10:25:27.858Z,10.34
2019-04-16T10:28:01.873Z,10.26
2019-04-16T10:30:38.440Z,10.23
2019-04-16T10:33:11.026Z,10.17
2019-04-16T10:35:42.533Z,10.11
2019-04-16T10:38:21.990Z,10.04
2019-04-16T10:40:55.770Z,9.96
2019-04-16T10:43:43.927Z,9.92
2019-04-16T10:46:09.878Z,9.88
2019-04-16T10:48:54.823Z,9.90
2019-04-16T10:51:29.006Z,9.96
2019-04-16T10:54:14.020Z,10.06
2019-04-16T10:56:56.706Z,10.13
2019-04-16T10:59:47.554Z,10.30
2019-04-16T11:02:32.614Z,10.37
2019-04-16T11:05:06.735Z,10.46
2019-04-16T11:07:40.786Z,10.54
2019-04-16T11:10:14.065Z,10.65
2019-04-16T11:12:45.550Z,10.73
2019-04-16T11:15:18.570Z,10.72
2019-04-16T11:17:54.082Z,10.62
2019-04-16T11:20:26.626Z,10.50
2019-04-16T11:22:59.777Z,10.45
2019-04-16T11:25:31.326Z,10.44
2019-04-16T11:28:04.138Z,10.41
2019-04-16T11:30:44.201Z,10.39
2019-04-16T11:33:15.853Z,10.28
2019-04-16T11:35:52.582Z,10.21
2019-04-16T11:38:20.726Z,10.16
2019-04-16T11:40:52.346Z,10.10
2019-04-16T11:43:25.209Z,10.05
2019-04-16T11:45:56.826Z,10.02
2019-04-16T11:48:28.402Z,9.97
2019-04-16T11:51:02.444Z,9.92
2019-04-16T11:53:35.490Z,9.92
2019-04-16T11:56:07.068Z,9.87
2019-04-16T11:58:41.498Z,9.88
2019-04-16T12:01:23.384Z,9.87
2019-04-16T12:03:56.744Z,9.87
2019-04-16T12:06:46.089Z,9.89
2019-04-16T12:09:21.951Z,9.90
2019-04-16T12:12:10.015Z,9.94
2019-04-16T12:14:43.674Z,9.94
2019-04-16T12:17:19.791Z,9.98
2019-04-16T12:19:56.105Z,10.03
2019-04-16T12:22:30.201Z,10.10
2019-04-16T12:25:12.796Z,10.16
2019-04-16T12:27:58.077Z,10.21
2019-04-16T12:30:47.622Z,10.30
2019-04-16T12:33:23.804Z,10.32
2019-04-16T12:35:57.012Z,10.36
2019-04-16T12:38:33.146Z,10.35
2019-04-16T12:41:22.483Z,10.33
2019-04-16T12:44:10.966Z,10.34
2019-04-16T12:46:48.547Z,10.34
2019-04-16T12:49:37.881Z,10.38
2019-04-16T12:52:31.942Z,10.43
2019-04-16T12:55:10.193Z,10.52
2019-04-16T12:57:58.774Z,10.58
2019-04-16T13:00:48.698Z,10.64
2019-04-16T13:03:28.033Z,10.63
2019-04-16T13:06:04.450Z,10.67
2019-04-16T13:08:37.708Z,10.53
2019-04-16T13:11:35.204Z,10.39
2019-04-16T13:14:08.352Z,10.42
2019-04-16T13:16:47.690Z,10.30
2019-04-16T13:19:38.183Z,10.22
2019-04-16T13:22:12.747Z,10.13
2019-04-16T13:24:58.230Z,10.08
2019-04-16T13:27:37.151Z,10.07
2019-04-16T13:30:10.485Z,10.12
2019-04-16T13:32:42.157Z,10.17
2019-04-16T13:35:13.795Z,10.20
2019-04-16T13:37:45.471Z,10.22
2019-04-16T13:40:18.956Z,10.21
2019-04-16T13:42:51.322Z,10.18
2019-04-16T13:45:28.606Z,10.17
2019-04-16T13:48:14.519Z,10.19
2019-04-16T13:50:40.499Z,10.26
2019-04-16T13:53:29.064Z,10.31
2019-04-16T13:56:19.695Z,10.17
2019-04-16T13:59:00.585Z,10.13
2019-04-16T14:01:45.976Z,10.11
2019-04-16T14:04:16.659Z,10.09
2019-04-16T16:39:07.154Z,9.48
2019-04-16T16:41:40.563Z,9.47
2019-04-16T16:44:12.610Z,9.45
2019-04-16T16:47:05.795Z,9.45
2019-04-16T16:49:39.638Z,9.42
2019-04-16T16:52:14.283Z,9.41
2019-04-16T16:54:48.171Z,9.40
2019-04-16T16:57:23.046Z,9.38
2019-04-16T16:59:59.475Z,9.27
2019-04-16T17:02:41.505Z,9.22
2019-04-16T17:05:15.553Z,9.15
2019-04-16T17:07:56.388Z,9.11
2019-04-16T17:10:29.055Z,9.06
2019-04-16T17:13:02.620Z,9.03
2019-04-16T17:15:36.830Z,8.99
2019-04-16T17:18:10.442Z,8.96
2019-04-16T17:20:43.822Z,8.95
2019-04-16T17:23:17.373Z,8.92
2019-04-16T17:25:50.894Z,8.91
2019-04-16T17:28:25.995Z,8.90
2019-04-16T17:30:58.212Z,8.90
2019-04-16T17:33:31.510Z,8.87
2019-04-16T17:36:40.121Z,8.84
2019-04-16T17:39:14.231Z,8.81
2019-04-16T17:42:13.575Z,8.79
2019-04-16T17:44:49.920Z,8.73
2019-04-16T17:47:33.040Z,8.71
2019-04-16T17:50:13.333Z,8.68
2019-04-16T17:53:06.222Z,8.66
2019-04-16T17:55:55.154Z,8.63
2019-04-16T17:58:37.506Z,8.61
2019-04-16T18:01:11.507Z,8.60
2019-04-16T18:03:50.376Z,8.60
2019-04-16T18:06:31.676Z,8.60
2019-04-16T18:09:10.156Z,8.60
2019-04-16T18:11:51.219Z,8.58
2019-04-16T18:14:55.917Z,8.57
2019-04-16T18:17:46.789Z,8.57
2019-04-16T18:20:39.935Z,8.60
2019-04-16T18:23:35.463Z,8.54
2019-04-16T18:26:43.203Z,8.52
2019-04-16T18:29:21.010Z,8.50
2019-04-16T18:32:01.610Z,8.46
2019-04-16T18:34:50.936Z,8.46
2019-04-16T18:37:34.848Z,8.42
2019-04-16T18:40:16.147Z,8.48
2019-04-16T18:43:01.905Z,8.54
2019-04-16T18:46:08.615Z,8.41
2019-04-16T18:48:44.920Z,8.27
2019-04-16T18:51:33.025Z,8.17
2019-04-16T18:54:09.337Z,8.20
2019-04-16T18:56:44.125Z,8.04
2019-04-16T18:59:21.891Z,7.91
2019-04-16T19:02:19.527Z,7.85
2019-04-16T19:05:07.869Z,7.90
2019-04-16T19:07:51.241Z,7.69
2019-04-16T19:11:01.590Z,7.58
2019-04-16T19:13:44.900Z,7.48
2019-04-16T19:16:29.710Z,7.46
2019-04-16T19:19:27.339Z,7.44
2019-04-16T19:22:29.878Z,7.47
2019-04-16T19:25:23.536Z,7.55
2019-04-16T19:28:09.758Z,7.63
2019-04-16T19:30:52.695Z,7.70
2019-04-16T19:33:38.128Z,7.80
2019-04-16T19:36:13.144Z,7.86
2019-04-16T19:38:53.542Z,7.88
2019-04-16T19:41:31.572Z,7.92
2019-04-16T19:44:07.251Z,8.07
2019-04-16T19:46:38.705Z,7.99
2019-04-16T19:49:10.565Z,7.97
2019-04-16T19:51:43.243Z,7.93
2019-04-16T19:54:19.508Z,7.94
2019-04-16T19:57:03.816Z,8.02
2019-04-16T19:59:37.197Z,7.89
2019-04-16T20:02:09.723Z,7.84
2019-04-16T20:04:44.517Z,7.81
2019-04-16T20:07:20.941Z,7.81
2019-04-16T20:09:55.092Z,7.80
2019-04-16T20:12:28.901Z,7.82
2019-04-16T20:15:09.348Z,7.89
2019-04-16T20:17:41.844Z,7.83
2019-04-16T20:20:18.028Z,7.82
2019-04-16T20:22:55.678Z,7.83
2019-04-16T20:25:27.665Z,7.82
2019-04-16T20:28:02.389Z,7.81
2019-04-16T20:30:39.958Z,7.81
2019-04-16T20:33:19.184Z,7.81
2019-04-16T20:35:58.031Z,7.79
2019-04-16T20:38:30.157Z,7.80
2019-04-16T20:41:03.791Z,7.79
2019-04-16T20:43:37.695Z,7.78
2019-04-16T20:46:09.629Z,7.76
2019-04-16T20:48:41.872Z,7.74
2019-04-16T20:51:16.170Z,7.75
2019-04-16T20:53:47.843Z,7.71
2019-04-16T20:56:20.463Z,7.69
2019-04-16T20:58:55.011Z,7.67
2019-04-16T21:01:35.189Z,7.65
2019-04-16T21:04:05.301Z,7.67
2019-04-16T21:06:40.659Z,7.66
2019-04-16T21:09:08.640Z,7.65
2019-04-16T21:11:41.976Z,7.64
2019-04-16T21:14:15.073Z,7.62
2019-04-16T21:16:52.309Z,7.59
2019-04-16T21:19:27.667Z,7.60
2019-04-16T21:22:01.374Z,7.61
2019-04-16T21:24:33.519Z,7.64
2019-04-16T21:27:09.881Z,7.70
2019-04-16T21:29:40.595Z,7.70
2019-04-16T21:32:25.141Z,7.73
2019-04-16T21:35:06.696Z,7.75
2019-04-16T21:37:44.196Z,7.73
2019-04-16T21:40:16.484Z,7.75
2019-04-16T21:42:48.208Z,7.74
2019-04-16T21:45:21.971Z,7.76
2019-04-16T21:47:55.105Z,7.82
2019-04-16T21:50:27.149Z,7.89
2019-04-16T21:52:59.325Z,7.85
2019-04-16T21:55:35.476Z,7.84
2019-04-16T21:58:07.314Z,7.87
2019-04-16T22:00:40.752Z,7.87
2019-04-16T22:03:34.035Z,7.85
2019-04-16T22:06:07.772Z,7.84
2019-04-16T22:08:40.385Z,7.84
2019-04-16T22:11:12.679Z,7.84
2019-04-16T22:13:44.498Z,7.85
2019-04-16T22:16:17.648Z,7.87
2019-04-16T22:18:50.347Z,7.87
2019-04-16T22:21:27.401Z,7.87
2019-04-16T22:24:00.698Z,7.86
2019-04-16T22:26:35.614Z,7.86
2019-04-16T22:29:08.174Z,7.88
2019-04-16T22:31:41.469Z,7.96
2019-04-16T22:34:16.624Z,8.04
2019-04-16T22:36:48.096Z,8.12
2019-04-16T22:39:30.661Z,8.15
2019-04-16T22:42:10.921Z,8.22
2019-04-16T22:44:48.461Z,8.33
2019-04-16T22:47:30.792Z,8.31
2019-04-16T22:50:14.728Z,8.38
2019-04-16T22:52:35.638Z,8.40
2019-04-16T22:55:07.320Z,8.44
2019-04-16T22:57:38.982Z,8.45
2019-04-16T23:00:13.083Z,8.41
2019-04-16T23:02:48.245Z,8.28
2019-04-16T23:05:20.403Z,8.30
2019-04-16T23:07:52.304Z,8.37
2019-04-16T23:10:23.998Z,8.39
2019-04-16T23:12:59.520Z,8.49
2019-04-16T23:15:30.565Z,8.56
2019-04-16T23:18:02.991Z,8.60
2019-04-16T23:20:36.978Z,8.63
2019-04-16T23:23:09.953Z,8.60
2019-04-16T23:25:41.810Z,8.60
2019-04-16T23:28:13.503Z,8.49
2019-04-16T23:30:47.957Z,8.51
2019-04-16T23:33:20.502Z,8.54
2019-04-16T23:35:52.257Z,8.53
2019-04-16T23:38:23.934Z,8.56
2019-04-16T23:40:55.614Z,8.50
2019-04-16T23:43:47.311Z,8.54
2019-04-16T23:46:29.716Z,8.58
2019-04-16T23:49:05.733Z,8.71
2019-04-16T23:51:44.754Z,8.70
2019-04-16T23:54:18.009Z,8.78
2019-04-16T23:56:53.949Z,8.75
2019-04-16T23:59:27.386Z,8.69
